Time;durP1;ratioP1;P1;durP2;ratioP2;P2;SDS_P1;SDS_P2;PMS_P1;PMS_P2;Temp;Humidity;BMP_temperature;BMP_pressure;BME280_temperature;BME280_humidity;BME280_pressure;Samples;Min_cycle;Max_cycle;Signal;HPM_P1;HPM_P2
2022/06/30 00:00:56;;;;;;;8.13;6.67;;;20.20;99.90;;;;;;4990730;28;20940;-64
2022/06/30 00:03:21;;;;;;;6.53;6.03;;;20.20;99.90;;;;;;4987468;28;20453;-64
2022/06/30 00:05:47;;;;;;;6.83;6.03;;;20.10;99.90;;;;;;4991728;28;20195;-64
2022/06/30 00:08:13;;;;;;;6.50;6.00;;;20.10;99.90;;;;;;4989661;28;20187;-64
2022/06/30 00:10:38;;;;;;;6.07;5.67;;;20.10;99.90;;;;;;4990524;28;20205;-64
2022/06/30 00:13:04;;;;;;;8.40;6.40;;;20.10;99.90;;;;;;4994156;28;20187;-64
2022/06/30 00:15:29;;;;;;;6.93;6.30;;;20.10;99.90;;;;;;4992444;28;20187;-64
2022/06/30 00:17:55;;;;;;;7.60;7.07;;;20.10;99.90;;;;;;4993108;28;20211;-64
2022/06/30 00:20:20;;;;;;;5.60;5.10;;;20.20;99.90;;;;;;4991756;28;20179;-64
2022/06/30 00:22:46;;;;;;;8.83;6.27;;;20.20;99.90;;;;;;4987190;28;20216;-65
2022/06/30 00:25:13;;;;;;;6.20;5.60;;;20.10;99.90;;;;;;4991339;28;20179;-64
2022/06/30 00:27:39;;;;;;;6.10;5.50;;;20.10;99.90;;;;;;4991287;28;20199;-65
2022/06/30 00:30:06;;;;;;;6.70;6.20;;;20.00;99.90;;;;;;4989451;28;20457;-64
2022/06/30 00:32:31;;;;;;;7.77;6.13;;;19.90;99.90;;;;;;4990676;28;20574;-64
2022/06/30 00:34:58;;;;;;;5.70;5.27;;;19.80;99.90;;;;;;4988014;28;20530;-65
2022/06/30 00:37:24;;;;;;;7.73;7.03;;;19.80;99.90;;;;;;4995384;28;20203;-64
2022/06/30 00:39:49;;;;;;;7.30;6.23;;;19.70;99.90;;;;;;4991773;28;20443;-64
2022/06/30 00:42:15;;;;;;;13.33;7.53;;;19.80;99.90;;;;;;4989859;28;20192;-64
2022/06/30 00:44:40;;;;;;;7.40;6.80;;;19.80;99.90;;;;;;4991028;28;20266;-64
2022/06/30 00:47:06;;;;;;;8.27;6.77;;;19.80;99.90;;;;;;4990761;28;20249;-64
2022/06/30 00:49:32;;;;;;;9.30;6.47;;;19.80;99.90;;;;;;4996606;28;20257;-64
2022/06/30 00:52:00;;;;;;;7.87;7.00;;;19.70;99.90;;;;;;4993010;28;20197;-64
2022/06/30 00:54:26;;;;;;;7.03;6.50;;;19.70;99.90;;;;;;4990920;28;20187;-64
2022/06/30 00:56:53;;;;;;;7.13;6.37;;;19.70;99.90;;;;;;4989772;28;20557;-64
2022/06/30 00:59:20;;;;;;;7.57;6.97;;;19.60;99.90;;;;;;4990862;28;20442;-64
2022/06/30 01:01:48;;;;;;;6.33;5.93;;;19.70;99.90;;;;;;4991578;28;20466;-63
2022/06/30 01:04:17;;;;;;;6.90;6.40;;;19.70;99.90;;;;;;4990372;28;20479;-64
2022/06/30 01:06:44;;;;;;;11.60;7.40;;;19.60;99.90;;;;;;4989811;28;20470;-64
2022/06/30 01:09:10;;;;;;;7.73;7.03;;;19.50;99.90;;;;;;4988874;28;20522;-65
2022/06/30 01:14:20;;;;;;;6.90;6.30;;;19.30;99.90;;;;;;4990681;28;20242;-64
2022/06/30 01:16:45;;;;;;;7.27;6.67;;;19.30;99.90;;;;;;4998343;28;20478;-64
2022/06/30 01:19:14;;;;;;;6.40;5.90;;;19.30;99.90;;;;;;4990632;28;20183;-64
2022/06/30 01:21:39;;;;;;;6.60;6.00;;;19.30;99.90;;;;;;4994244;28;20606;-64
2022/06/30 01:24:05;;;;;;;6.63;6.10;;;19.30;99.90;;;;;;4989760;28;20439;-64
2022/06/30 01:26:31;;;;;;;6.93;6.43;;;19.30;99.90;;;;;;4991285;28;20743;-64
2022/06/30 01:28:57;;;;;;;7.10;6.60;;;19.20;99.90;;;;;;4989499;28;20196;-65
2022/06/30 01:31:23;;;;;;;6.10;5.60;;;19.10;99.90;;;;;;4990557;28;20974;-64
2022/06/30 01:33:49;;;;;;;7.80;7.20;;;19.10;99.90;;;;;;4989653;28;20254;-64
2022/06/30 01:36:15;;;;;;;7.77;7.17;;;19.00;99.90;;;;;;4988973;28;20473;-65
2022/06/30 01:38:41;;;;;;;6.93;6.43;;;18.90;99.90;;;;;;4990065;28;20431;-64
2022/06/30 01:41:07;;;;;;;8.37;7.00;;;18.90;99.90;;;;;;4972463;28;20234;-64
2022/06/30 01:43:32;;;;;;;7.60;7.00;;;19.00;99.90;;;;;;4988517;28;20438;-64
2022/06/30 01:45:58;;;;;;;7.40;6.70;;;19.00;99.90;;;;;;4989299;28;20617;-64
2022/06/30 01:48:23;;;;;;;8.77;7.97;;;19.00;99.90;;;;;;4993708;28;20634;-64
2022/06/30 01:50:49;;;;;;;7.90;7.20;;;18.90;99.90;;;;;;5001134;28;20183;-64
2022/06/30 01:53:14;;;;;;;8.03;7.23;;;19.00;99.90;;;;;;4992683;28;20684;-63
2022/06/30 01:55:40;;;;;;;7.57;6.97;;;19.00;99.90;;;;;;4990739;28;20214;-64
2022/06/30 01:58:06;;;;;;;7.13;6.63;;;19.00;99.90;;;;;;4996828;28;20187;-64
2022/06/30 02:00:32;;;;;;;7.57;6.40;;;19.00;99.90;;;;;;4999704;28;20172;-65
2022/06/30 02:02:58;;;;;;;7.57;6.87;;;19.00;99.90;;;;;;4994260;28;20175;-64
2022/06/30 02:05:25;;;;;;;8.00;7.50;;;18.90;99.90;;;;;;4994195;28;20541;-64
2022/06/30 02:07:51;;;;;;;7.43;6.93;;;18.90;99.90;;;;;;4993807;28;20275;-64
2022/06/30 02:10:19;;;;;;;7.33;6.63;;;18.90;99.90;;;;;;4987603;28;20452;-64
2022/06/30 02:12:46;;;;;;;7.70;7.03;;;18.90;99.90;;;;;;5002051;28;20524;-64
2022/06/30 02:15:21;;;;;;;7.43;6.80;;;18.80;99.90;;;;;;4993405;28;20474;-64
2022/06/30 02:17:53;;;;;;;7.83;7.23;;;18.80;99.90;;;;;;4993624;28;20489;-64
2022/06/30 02:20:21;;;;;;;8.03;7.33;;;18.70;99.90;;;;;;4985440;28;20940;-64
2022/06/30 02:22:49;;;;;;;7.80;7.20;;;18.60;99.90;;;;;;4994648;28;20955;-63
2022/06/30 02:25:16;;;;;;;9.23;7.43;;;18.50;99.90;;;;;;4991655;28;20443;-64
2022/06/30 02:27:41;;;;;;;8.27;7.37;;;18.50;99.90;;;;;;4993221;28;20509;-64
2022/06/30 02:30:07;;;;;;;7.93;7.33;;;18.50;99.90;;;;;;5002632;28;20625;-65
2022/06/30 02:32:33;;;;;;;7.50;7.00;;;18.40;99.90;;;;;;4993209;28;20179;-64
2022/06/30 02:34:58;;;;;;;8.70;8.10;;;18.40;99.90;;;;;;5002137;28;20436;-64
2022/06/30 02:37:24;;;;;;;8.37;7.70;;;18.40;99.90;;;;;;4993400;28;20628;-64
2022/06/30 02:39:50;;;;;;;8.07;7.43;;;18.40;99.90;;;;;;4997322;28;20187;-64
2022/06/30 02:42:16;;;;;;;7.57;6.93;;;18.50;99.90;;;;;;4993081;28;20211;-64
2022/06/30 02:44:41;;;;;;;9.13;8.43;;;18.50;99.90;;;;;;4994160;28;20186;-64
2022/06/30 02:47:07;;;;;;;9.60;7.17;;;18.50;99.90;;;;;;4994791;28;20532;-64
2022/06/30 02:49:33;;;;;;;8.30;7.60;;;18.40;99.90;;;;;;4990237;28;20637;-64
2022/06/30 02:51:59;;;;;;;9.43;8.53;;;18.40;99.90;;;;;;4992173;28;20442;-63
2022/06/30 02:54:24;;;;;;;8.20;7.40;;;18.40;99.90;;;;;;4993336;28;20191;-64
2022/06/30 02:56:50;;;;;;;8.70;8.10;;;18.40;99.90;;;;;;4990771;28;20211;-64
2022/06/30 02:59:16;;;;;;;9.03;8.13;;;18.30;99.90;;;;;;4997827;28;20191;-65
2022/06/30 03:01:42;;;;;;;8.53;7.80;;;18.30;99.90;;;;;;4992661;28;20218;-63
2022/06/30 03:04:07;;;;;;;9.77;8.87;;;18.30;99.90;;;;;;4992507;28;20825;-64
2022/06/30 03:06:34;;;;;;;10.17;9.13;;;18.30;99.90;;;;;;4993868;28;20270;-64
2022/06/30 03:09:00;;;;;;;9.83;8.30;;;18.30;99.90;;;;;;4991237;28;20210;-64
2022/06/30 03:11:27;;;;;;;8.80;7.47;;;18.30;99.90;;;;;;4993369;28;20442;-64
2022/06/30 03:13:53;;;;;;;8.60;7.90;;;18.20;99.90;;;;;;4993382;28;20517;-64
2022/06/30 03:16:19;;;;;;;8.30;7.60;;;18.20;99.90;;;;;;4996006;28;20558;-64
2022/06/30 03:18:44;;;;;;;8.13;7.40;;;18.20;99.90;;;;;;4992823;28;20450;-64
2022/06/30 03:21:11;;;;;;;8.67;7.83;;;18.10;99.90;;;;;;5000741;28;20434;-64
2022/06/30 03:23:36;;;;;;;9.07;8.17;;;18.10;99.90;;;;;;4992460;28;20921;-64
2022/06/30 03:26:03;;;;;;;10.23;8.70;;;18.10;99.90;;;;;;4995635;28;20454;-63
2022/06/30 03:28:29;;;;;;;10.00;8.73;;;18.20;99.90;;;;;;4997792;28;20576;-64
2022/06/30 03:30:55;;;;;;;10.20;9.30;;;18.20;99.90;;;;;;4995634;28;20439;-64
2022/06/30 03:33:20;;;;;;;8.40;7.70;;;18.20;99.90;;;;;;4992299;28;20450;-64
2022/06/30 03:35:46;;;;;;;8.67;7.77;;;18.20;99.90;;;;;;4995130;28;20908;-64
2022/06/30 03:38:12;;;;;;;7.90;7.20;;;18.20;99.90;;;;;;4995455;28;20181;-64
2022/06/30 03:40:38;;;;;;;8.33;7.60;;;18.10;99.90;;;;;;4992958;28;20645;-65
2022/06/30 03:43:04;;;;;;;8.93;8.13;;;18.10;99.90;;;;;;4991050;28;20438;-64
2022/06/30 03:45:30;;;;;;;8.00;7.10;;;18.10;99.90;;;;;;4991865;28;20176;-64
2022/06/30 03:47:58;;;;;;;8.60;8.00;;;18.10;99.90;;;;;;4990761;28;20235;-64
2022/06/30 03:50:24;;;;;;;8.90;8.27;;;18.10;99.90;;;;;;4996704;28;20438;-64
2022/06/30 03:52:50;;;;;;;9.87;9.13;;;18.20;99.90;;;;;;4994536;28;20849;-64
2022/06/30 03:55:15;;;;;;;9.00;8.17;;;18.30;99.90;;;;;;4990942;28;20179;-64
2022/06/30 03:57:41;;;;;;;9.63;8.93;;;18.20;99.90;;;;;;4991959;28;20230;-64
2022/06/30 04:00:07;;;;;;;8.70;7.83;;;18.30;99.90;;;;;;4998982;28;20176;-64
2022/06/30 04:02:32;;;;;;;7.67;7.07;;;18.40;99.90;;;;;;4992726;28;20233;-64
2022/06/30 04:04:58;;;;;;;9.37;8.47;;;18.50;99.90;;;;;;5003597;28;20524;-64
2022/06/30 04:07:24;;;;;;;15.20;13.20;;;18.50;99.90;;;;;;4993089;28;20202;-63
2022/06/30 04:09:50;;;;;;;12.77;10.53;;;18.60;99.90;;;;;;4993698;28;20222;-63
2022/06/30 04:12:15;;;;;;;8.63;7.93;;;18.60;99.90;;;;;;4991829;28;20438;-63
2022/06/30 04:14:41;;;;;;;8.67;7.87;;;18.70;99.90;;;;;;4993229;28;20570;-64
2022/06/30 04:17:07;;;;;;;9.20;8.20;;;18.80;99.90;;;;;;4990329;28;20211;-63
2022/06/30 04:19:32;;;;;;;10.80;9.13;;;19.00;99.90;;;;;;4989491;28;20218;-63
2022/06/30 04:21:58;;;;;;;8.73;7.83;;;19.10;99.90;;;;;;4993169;28;20517;-64
2022/06/30 04:24:23;;;;;;;9.20;8.33;;;19.20;99.90;;;;;;4996645;28;20188;-63
2022/06/30 04:26:49;;;;;;;10.10;9.13;;;19.30;99.90;;;;;;4992196;28;20203;-63
2022/06/30 04:29:14;;;;;;;9.20;7.97;;;19.30;99.90;;;;;;4992526;28;20636;-63
2022/06/30 04:34:24;;;;;;;9.63;8.90;;;19.50;99.90;;;;;;4987989;28;20250;-63
2022/06/30 04:36:50;;;;;;;7.77;6.97;;;19.60;99.90;;;;;;4991742;28;20467;-63
2022/06/30 04:39:16;;;;;;;8.63;8.00;;;19.70;99.90;;;;;;4997694;28;20179;-64
2022/06/30 04:41:41;;;;;;;9.20;8.40;;;19.80;99.90;;;;;;4989841;28;20182;-64
2022/06/30 04:44:07;;;;;;;9.73;8.83;;;20.00;99.90;;;;;;4991784;28;20573;-63
2022/06/30 04:46:33;;;;;;;10.10;8.47;;;20.20;99.90;;;;;;4989775;28;20218;-62
2022/06/30 04:48:58;;;;;;;8.87;8.03;;;20.30;99.90;;;;;;4992963;28;20203;-63
2022/06/30 04:51:24;;;;;;;10.20;8.50;;;20.40;99.90;;;;;;4990780;28;20656;-63
2022/06/30 04:53:51;;;;;;;8.10;7.30;;;20.50;99.90;;;;;;4989242;28;20218;-63
2022/06/30 04:56:18;;;;;;;11.23;10.20;;;20.50;99.90;;;;;;4988463;28;20826;-63
2022/06/30 04:58:44;;;;;;;9.67;8.80;;;20.50;99.90;;;;;;4992522;28;20503;-63
2022/06/30 05:01:10;;;;;;;10.07;9.17;;;20.50;99.90;;;;;;4988289;28;20439;-63
2022/06/30 05:03:36;;;;;;;10.43;9.40;;;20.60;99.90;;;;;;4988077;28;20461;-63
2022/06/30 05:06:03;;;;;;;11.27;8.43;;;20.70;99.90;;;;;;4988131;28;20463;-64
2022/06/30 05:08:29;;;;;;;9.50;8.80;;;20.90;99.90;;;;;;4995094;28;20437;-67
2022/06/30 05:10:55;;;;;;;9.10;8.30;;;20.90;99.90;;;;;;5003625;28;20497;-63
2022/06/30 05:13:20;;;;;;;8.20;7.50;;;20.90;99.90;;;;;;5002804;28;20516;-64
2022/06/30 05:15:46;;;;;;;9.60;8.80;;;21.00;99.90;;;;;;5002758;28;20207;-63
2022/06/30 05:18:13;;;;;;;8.37;7.70;;;21.20;99.90;;;;;;4999623;28;20203;-67
2022/06/30 05:20:39;;;;;;;8.83;8.17;;;21.30;99.90;;;;;;4995816;28;20220;-63
2022/06/30 05:23:04;;;;;;;8.97;8.27;;;21.50;99.90;;;;;;5004452;28;20437;-64
2022/06/30 05:28:14;;;;;;;9.97;7.63;;;22.00;99.90;;;;;;5001183;28;20210;-64
2022/06/30 05:30:41;;;;;;;9.63;8.60;;;22.20;99.90;;;;;;4988759;28;20462;-63
2022/06/30 05:33:07;;;;;;;8.40;7.30;;;22.40;99.90;;;;;;4989073;28;20179;-62
2022/06/30 05:35:33;;;;;;;9.73;8.73;;;22.50;99.90;;;;;;4991395;28;20807;-63
2022/06/30 05:37:58;;;;;;;9.03;8.33;;;22.70;99.90;;;;;;4999953;28;20450;-65
2022/06/30 05:40:24;;;;;;;8.30;7.70;;;23.00;99.90;;;;;;4990588;28;20179;-63
2022/06/30 05:42:49;;;;;;;7.93;7.23;;;23.10;99.90;;;;;;4998459;28;20668;-64
2022/06/30 05:45:15;;;;;;;8.17;7.57;;;23.20;99.90;;;;;;5007520;28;20221;-64
2022/06/30 05:47:52;;;;;;;8.30;7.60;;;23.40;99.90;;;;;;4994986;28;20211;-63
2022/06/30 05:50:19;;;;;;;9.27;8.60;;;23.50;99.90;;;;;;4986126;28;20197;-65
2022/06/30 05:52:45;;;;;;;8.20;7.50;;;23.60;99.90;;;;;;4993793;28;20446;-64
2022/06/30 05:55:11;;;;;;;8.90;8.20;;;23.60;99.90;;;;;;5001879;28;21001;-63
2022/06/30 05:57:50;;;;;;;9.00;8.40;;;23.80;99.90;;;;;;5004356;28;20506;-64
2022/06/30 06:00:15;;;;;;;9.07;8.17;;;24.00;99.90;;;;;;4990346;28;20179;-63
2022/06/30 06:02:41;;;;;;;10.37;9.27;;;24.10;99.90;;;;;;4992237;28;20441;-64
2022/06/30 06:05:07;;;;;;;8.77;7.87;;;24.20;99.90;;;;;;5001185;28;20611;-65
2022/06/30 06:07:32;;;;;;;9.50;8.70;;;24.40;99.90;;;;;;4999038;28;21556;-65
2022/06/30 06:09:58;;;;;;;9.57;8.67;;;24.50;99.90;;;;;;4996137;28;20594;-64
2022/06/30 06:12:23;;;;;;;8.90;8.13;;;24.60;99.90;;;;;;4991703;28;20605;-65
2022/06/30 06:14:49;;;;;;;8.30;7.53;;;24.70;99.90;;;;;;4991030;28;20200;-64
2022/06/30 06:17:14;;;;;;;8.30;7.60;;;24.80;99.90;;;;;;4987571;28;20269;-65
2022/06/30 06:19:41;;;;;;;9.17;7.33;;;24.90;99.90;;;;;;4987435;28;20191;-65
2022/06/30 06:22:07;;;;;;;9.53;7.60;;;25.00;99.90;;;;;;4989650;28;20172;-65
2022/06/30 06:24:32;;;;;;;8.03;7.43;;;25.10;99.90;;;;;;4985915;28;20505;-64
2022/06/30 06:26:58;;;;;;;7.57;6.83;;;25.00;99.90;;;;;;4990777;28;20211;-63
2022/06/30 06:29:23;;;;;;;7.77;7.17;;;25.00;99.90;;;;;;4994935;28;20206;-64
2022/06/30 06:31:49;;;;;;;10.67;8.27;;;25.20;99.90;;;;;;4992315;28;20596;-64
2022/06/30 06:34:14;;;;;;;8.57;7.87;;;25.30;99.90;;;;;;4992464;28;20179;-64
2022/06/30 06:36:40;;;;;;;8.17;7.43;;;25.40;99.90;;;;;;4994838;28;20689;-62
2022/06/30 06:39:05;;;;;;;8.70;8.03;;;25.20;99.90;;;;;;4989873;28;20211;-64
2022/06/30 06:41:32;;;;;;;8.63;7.80;;;25.40;99.90;;;;;;4995721;28;20207;-65
2022/06/30 06:43:57;;;;;;;9.00;8.20;;;25.70;99.90;;;;;;4995223;28;20198;-63
2022/06/30 06:46:26;;;;;;;9.10;8.27;;;25.80;99.90;;;;;;4995062;28;20481;-62
2022/06/30 06:48:54;;;;;;;8.80;8.17;;;25.80;99.90;;;;;;4993375;28;20652;-64
2022/06/30 06:51:19;;;;;;;8.73;7.77;;;25.80;99.90;;;;;;5001885;28;20447;-63
2022/06/30 06:53:45;;;;;;;7.93;7.30;;;25.60;99.90;;;;;;4999996;28;20441;-63
2022/06/30 06:56:11;;;;;;;9.93;8.97;;;25.30;99.90;;;;;;4991196;28;20211;-64
2022/06/30 06:58:36;;;;;;;12.30;10.70;;;25.20;99.90;;;;;;4993641;28;20728;-63
2022/06/30 07:01:04;;;;;;;12.37;8.30;;;25.30;99.90;;;;;;4992657;28;20442;-64
2022/06/30 07:03:30;;;;;;;8.57;7.60;;;25.60;99.90;;;;;;4991253;28;20642;-63
2022/06/30 07:05:56;;;;;;;12.90;9.50;;;25.60;99.90;;;;;;4991092;28;20434;-65
2022/06/30 07:08:22;;;;;;;11.07;8.10;;;25.70;99.90;;;;;;4989590;28;20542;-66
2022/06/30 07:10:47;;;;;;;10.00;9.03;;;25.80;99.90;;;;;;4991522;28;20502;-63
2022/06/30 07:13:13;;;;;;;9.97;8.73;;;25.70;99.90;;;;;;4992581;28;20184;-64
2022/06/30 07:15:38;;;;;;;14.83;8.50;;;25.80;99.90;;;;;;4992983;28;20215;-66
2022/06/30 07:18:04;;;;;;;12.13;9.20;;;26.10;99.90;;;;;;4992130;28;20858;-62
2022/06/30 07:20:30;;;;;;;8.60;7.70;;;26.40;99.90;;;;;;4992080;28;20603;-63
2022/06/30 07:22:55;;;;;;;13.50;8.17;;;26.60;99.90;;;;;;4995628;28;20176;-66
2022/06/30 07:25:21;;;;;;;11.87;9.50;;;26.90;99.90;;;;;;4991050;28;20176;-63
2022/06/30 07:27:46;;;;;;;11.60;9.00;;;27.20;99.90;;;;;;4993265;28;20211;-63
2022/06/30 07:30:12;;;;;;;11.20;8.53;;;26.90;99.90;;;;;;4988470;28;20668;-68
2022/06/30 07:32:38;;;;;;;8.40;6.93;;;27.10;99.90;;;;;;4992226;28;20885;-64
2022/06/30 07:35:05;;;;;;;8.40;7.80;;;27.20;99.90;;;;;;4992015;28;21098;-65
2022/06/30 07:37:30;;;;;;;7.63;6.90;;;27.30;99.90;;;;;;4990614;28;20222;-68
2022/06/30 07:39:56;;;;;;;7.87;7.17;;;27.50;99.90;;;;;;4988512;28;20486;-70
2022/06/30 07:42:21;;;;;;;8.90;7.00;;;27.80;99.90;;;;;;4989519;28;20190;-66
2022/06/30 07:44:47;;;;;;;7.73;7.10;;;28.00;99.90;;;;;;4989703;28;20184;-66
2022/06/30 07:47:12;;;;;;;11.67;6.40;;;28.30;99.90;;;;;;4989491;28;20258;-65
2022/06/30 07:49:40;;;;;;;7.73;7.00;;;28.50;99.90;;;;;;4991137;28;20191;-66
2022/06/30 07:52:06;;;;;;;7.80;6.90;;;28.70;99.90;;;;;;4993693;28;20548;-67
2022/06/30 07:54:32;;;;;;;7.93;7.13;;;29.00;99.90;;;;;;4988988;28;20451;-66
2022/06/30 07:56:58;;;;;;;7.33;6.83;;;29.20;99.90;;;;;;4992459;28;20345;-65
2022/06/30 07:59:23;;;;;;;7.20;6.60;;;29.40;99.90;;;;;;4993441;28;20517;-64
2022/06/30 08:01:49;;;;;;;6.90;6.30;;;29.20;99.90;;;;;;4992589;28;20183;-66
2022/06/30 08:04:17;;;;;;;5.90;5.50;;;29.20;99.90;;;;;;4995114;28;20523;-65
2022/06/30 08:06:43;;;;;;;7.07;6.40;;;29.00;99.90;;;;;;4989725;28;20287;-64
2022/06/30 08:09:08;;;;;;;7.07;6.47;;;29.10;99.90;;;;;;4987413;28;20529;-66
2022/06/30 08:11:34;;;;;;;9.13;6.23;;;29.20;99.90;;;;;;4990604;28;20222;-65
2022/06/30 08:13:59;;;;;;;6.30;5.90;;;29.30;99.90;;;;;;4989985;28;20183;-66
2022/06/30 08:16:25;;;;;;;7.83;6.20;;;29.40;99.90;;;;;;4989386;28;20290;-66
2022/06/30 08:18:51;;;;;;;7.07;6.40;;;29.40;99.90;;;;;;4986141;28;20179;-69
2022/06/30 08:21:16;;;;;;;7.97;7.47;;;29.70;99.90;;;;;;4990118;28;20191;-68
2022/06/30 08:23:42;;;;;;;7.27;6.60;;;30.00;99.90;;;;;;4992372;28;20215;-65
2022/06/30 08:26:08;;;;;;;8.00;7.40;;;30.30;99.40;;;;;;4989932;28;20222;-66
2022/06/30 08:28:33;;;;;;;10.40;6.63;;;30.10;99.60;;;;;;4988460;28;20186;-67
2022/06/30 08:31:00;;;;;;;6.70;6.20;;;30.10;99.30;;;;;;4990372;28;20179;-65
2022/06/30 08:33:27;;;;;;;6.83;6.00;;;30.10;98.70;;;;;;4988874;28;20187;-67
2022/06/30 08:35:52;;;;;;;7.27;6.60;;;30.10;98.60;;;;;;4989472;28;20976;-66
2022/06/30 08:38:18;;;;;;;7.30;6.70;;;30.50;98.40;;;;;;4986083;28;20449;-66
2022/06/30 08:43:31;;;;;;;7.00;6.47;;;30.70;97.60;;;;;;4988063;28;20194;-67
2022/06/30 08:45:58;;;;;;;7.40;6.70;;;30.40;98.00;;;;;;4989253;28;20952;-66
2022/06/30 08:48:24;;;;;;;7.77;7.10;;;30.80;97.10;;;;;;4988041;28;20958;-65
2022/06/30 08:50:59;;;;;;;7.53;6.30;;;31.00;96.40;;;;;;4989764;28;20438;-66
2022/06/30 08:53:29;;;;;;;6.93;6.33;;;31.40;95.50;;;;;;4987343;28;20179;-67
2022/06/30 08:55:56;;;;;;;7.30;6.70;;;31.50;94.80;;;;;;4987399;28;22091;-66
2022/06/30 08:58:22;;;;;;;6.50;5.90;;;31.50;94.20;;;;;;4988088;28;20916;-65
2022/06/30 09:00:51;;;;;;;5.23;4.83;;;31.60;93.70;;;;;;4988466;28;20915;-67
2022/06/30 09:03:17;;;;;;;5.70;5.30;;;31.50;93.50;;;;;;4988124;28;21469;-66
2022/06/30 09:05:46;;;;;;;6.67;6.07;;;31.50;92.60;;;;;;4990846;28;20430;-67
2022/06/30 09:08:12;;;;;;;5.50;5.10;;;31.60;92.70;;;;;;4984143;28;20857;-67
2022/06/30 09:10:49;;;;;;;6.63;5.30;;;31.70;92.80;;;;;;4988126;28;20489;-65
2022/06/30 09:13:15;;;;;;;5.03;4.63;;;31.80;91.00;;;;;;4994503;28;20520;-64
2022/06/30 09:15:41;;;;;;;5.60;5.10;;;31.70;90.40;;;;;;4988175;28;20444;-65
2022/06/30 09:18:06;;;;;;;5.40;5.10;;;31.90;90.50;;;;;;4990000;28;20493;-65
2022/06/30 09:20:37;;;;;;;6.07;5.57;;;32.00;90.20;;;;;;4986907;28;20175;-66
2022/06/30 09:23:27;;;;;;;5.63;4.73;;;32.10;88.70;;;;;;4988157;28;20175;-65
2022/06/30 09:25:56;;;;;;;5.57;5.10;;;31.70;87.60;;;;;;4978117;28;20500;-65
2022/06/30 09:28:41;;;;;;;5.90;5.10;;;31.80;87.90;;;;;;4990557;28;20443;-65
2022/06/30 09:31:11;;;;;;;5.07;4.67;;;32.20;87.20;;;;;;4991137;28;20453;-66
2022/06/30 09:33:39;;;;;;;5.23;4.93;;;32.20;84.80;;;;;;4989813;28;20446;-67
2022/06/30 09:36:18;;;;;;;7.40;6.63;;;32.60;84.20;;;;;;4992006;28;20493;-65
2022/06/30 09:39:03;;;;;;;5.83;5.10;;;33.20;82.70;;;;;;4989130;28;20430;-67
2022/06/30 09:41:31;;;;;;;6.07;5.47;;;33.40;81.50;;;;;;4988675;28;20513;-66
2022/06/30 09:43:57;;;;;;;5.20;4.70;;;33.50;80.70;;;;;;4990023;28;20438;-65
2022/06/30 09:46:22;;;;;;;4.60;4.20;;;33.60;79.10;;;;;;4991460;28;20473;-66
2022/06/30 09:48:48;;;;;;;5.03;4.63;;;33.60;70.40;;;;;;4988576;28;20438;-64
2022/06/30 09:51:14;;;;;;;5.40;5.00;;;33.60;75.70;;;;;;4987629;28;20234;-65
2022/06/30 09:53:39;;;;;;;5.30;4.40;;;33.70;76.30;;;;;;4988859;28;20199;-65
2022/06/30 09:56:13;;;;;;;4.83;4.53;;;33.80;74.80;;;;;;4991685;28;20203;-67
2022/06/30 09:58:42;;;;;;;3.83;3.33;;;34.10;70.40;;;;;;4991298;28;20638;-65
2022/06/30 10:01:09;;;;;;;6.70;4.20;;;34.60;65.30;;;;;;4987896;28;20493;-64
2022/06/30 10:03:44;;;;;;;4.60;4.00;;;34.70;64.20;;;;;;4991607;28;20419;-64
2022/06/30 10:06:13;;;;;;;5.20;4.70;;;34.70;63.80;;;;;;4991955;28;20445;-67
2022/06/30 10:08:39;;;;;;;3.93;3.70;;;35.10;62.80;;;;;;4995252;28;20433;-67
2022/06/30 10:11:05;;;;;;;5.17;4.77;;;35.40;63.80;;;;;;4995734;28;20423;-64
2022/06/30 10:13:35;;;;;;;8.00;4.87;;;35.90;59.70;;;;;;4995750;28;20197;-67
2022/06/30 10:16:03;;;;;;;4.27;3.90;;;35.70;59.20;;;;;;4995444;28;20573;-67
2022/06/30 10:18:32;;;;;;;7.30;4.50;;;35.00;61.00;;;;;;4994836;28;20513;-64
2022/06/30 10:20:58;;;;;;;6.30;5.70;;;34.50;62.30;;;;;;4995548;28;20963;-65
2022/06/30 10:23:25;;;;;;;5.40;4.93;;;35.10;61.60;;;;;;4995334;28;20497;-68
2022/06/30 10:25:54;;;;;;;5.07;4.63;;;34.90;62.80;;;;;;4995462;28;20168;-65
2022/06/30 10:28:24;;;;;;;5.50;5.00;;;35.20;60.80;;;;;;4994744;28;20421;-64
2022/06/30 10:30:55;;;;;;;5.80;5.13;;;36.00;60.00;;;;;;4995186;28;20815;-64
2022/06/30 10:33:46;;;;;;;7.33;5.60;;;36.10;58.30;;;;;;4995405;28;20418;-65
2022/06/30 10:36:25;;;;;;;5.53;5.03;;;36.90;57.60;;;;;;4995282;28;20864;-66
2022/06/30 10:39:29;;;;;;;5.63;5.10;;;37.30;58.20;;;;;;4994775;28;20421;-64
2022/06/30 10:41:55;;;;;;;7.23;4.87;;;38.10;56.30;;;;;;4980296;28;20430;-65
2022/06/30 10:44:23;;;;;;;7.07;4.97;;;38.10;55.40;;;;;;4994924;28;20415;-64
2022/06/30 10:46:48;;;;;;;5.30;4.90;;;38.10;55.40;;;;;;4994840;28;20289;-65
2022/06/30 10:49:15;;;;;;;5.33;4.77;;;38.70;53.60;;;;;;4994406;28;20573;-64
2022/06/30 10:51:41;;;;;;;5.20;4.90;;;39.10;52.20;;;;;;4995240;28;20183;-64
2022/06/30 10:54:08;;;;;;;5.30;4.80;;;37.70;53.60;;;;;;4995090;28;20875;-65
2022/06/30 10:56:49;;;;;;;5.10;4.70;;;37.40;53.00;;;;;;4994861;28;20466;-65
2022/06/30 10:59:14;;;;;;;4.43;4.23;;;38.30;52.50;;;;;;4994399;28;20421;-65
2022/06/30 11:02:14;;;;;;;4.90;4.60;;;39.40;50.90;;;;;;4994817;28;20509;-64
2022/06/30 11:04:47;;;;;;;5.43;4.93;;;39.40;50.50;;;;;;4994985;28;20170;-65
2022/06/30 11:07:18;;;;;;;5.20;4.87;;;39.80;49.60;;;;;;4977360;28;20964;-65
2022/06/30 11:09:44;;;;;;;5.27;4.87;;;39.60;49.30;;;;;;4994147;28;20434;-64
2022/06/30 11:12:14;;;;;;;4.90;4.60;;;39.90;48.70;;;;;;4994639;28;20426;-64
2022/06/30 11:14:55;;;;;;;4.90;4.50;;;40.70;48.00;;;;;;4994747;28;20295;-65
2022/06/30 11:17:23;;;;;;;8.27;5.57;;;40.20;46.40;;;;;;4994200;28;20462;-64
2022/06/30 11:19:59;;;;;;;5.07;4.77;;;40.20;46.10;;;;;;4993791;28;20409;-64
2022/06/30 11:22:27;;;;;;;6.10;5.00;;;40.70;45.60;;;;;;4994725;28;20413;-64
2022/06/30 11:24:57;;;;;;;7.10;5.83;;;40.40;45.90;;;;;;4994449;28;20447;-64
2022/06/30 11:27:25;;;;;;;5.17;4.83;;;40.30;46.70;;;;;;4994538;28;20463;-65
2022/06/30 11:30:17;;;;;;;5.60;5.10;;;40.20;46.50;;;;;;4993778;28;20916;-65
2022/06/30 11:32:42;;;;;;;6.90;4.93;;;40.80;46.40;;;;;;4989567;28;20438;-65
2022/06/30 11:35:08;;;;;;;5.33;4.73;;;41.80;45.10;;;;;;4994468;28;20426;-64
2022/06/30 11:37:34;;;;;;;5.13;4.83;;;43.00;43.40;;;;;;4994167;28;20286;-66
2022/06/30 11:40:04;;;;;;;5.87;5.23;;;43.40;42.60;;;;;;4993570;28;20214;-64
2022/06/30 11:42:30;;;;;;;5.10;4.70;;;43.50;42.20;;;;;;4994082;28;20183;-64
2022/06/30 11:44:56;;;;;;;5.63;5.23;;;42.10;42.80;;;;;;4994234;28;20427;-65
2022/06/30 11:47:23;;;;;;;6.47;4.90;;;41.70;43.10;;;;;;4993963;28;20464;-66
2022/06/30 11:49:59;;;;;;;4.70;4.40;;;40.90;44.20;;;;;;4998600;28;20453;-66
2022/06/30 11:52:37;;;;;;;6.37;5.77;;;41.80;42.90;;;;;;4989090;28;20496;-64
2022/06/30 11:55:04;;;;;;;5.30;4.93;;;43.50;41.30;;;;;;4990341;28;20532;-66
2022/06/30 11:57:36;;;;;;;5.83;4.90;;;44.60;39.70;;;;;;4997959;28;20477;-65
2022/06/30 12:00:09;;;;;;;14.70;5.90;;;45.30;38.60;;;;;;4991339;28;20813;-65
2022/06/30 12:02:39;;;;;;;5.70;5.40;;;45.50;38.10;;;;;;4991739;28;20470;-64
2022/06/30 12:05:10;;;;;;;7.43;5.23;;;45.60;37.30;;;;;;4992459;28;20442;-64
2022/06/30 12:07:37;;;;;;;5.63;4.60;;;44.30;37.20;;;;;;4996525;28;20470;-66
2022/06/30 12:10:04;;;;;;;5.27;4.77;;;44.90;37.60;;;;;;4991841;28;20455;-66
2022/06/30 12:12:31;;;;;;;4.97;4.60;;;45.30;36.30;;;;;;4993283;28;20492;-65
2022/06/30 12:14:59;;;;;;;5.00;4.47;;;45.00;36.60;;;;;;4993082;28;20435;-64
2022/06/30 12:17:45;;;;;;;7.67;5.00;;;46.00;36.00;;;;;;4997371;28;20477;-65
2022/06/30 12:20:13;;;;;;;5.33;4.80;;;45.80;35.70;;;;;;4987381;28;20450;-66
2022/06/30 12:22:41;;;;;;;6.40;4.90;;;44.90;35.70;;;;;;4989650;28;20442;-64
2022/06/30 12:25:07;;;;;;;8.23;4.70;;;43.80;36.60;;;;;;4988365;28;20457;-67
2022/06/30 12:27:40;;;;;;;5.90;5.40;;;42.20;38.00;;;;;;4996666;28;20461;-64
2022/06/30 12:30:10;;;;;;;6.50;5.17;;;41.00;38.70;;;;;;4988315;28;20190;-65
2022/06/30 12:32:35;;;;;;;5.70;5.20;;;42.10;38.40;;;;;;4995023;28;20782;-65
2022/06/30 12:35:06;;;;;;;8.07;4.60;;;43.40;37.90;;;;;;4993184;28;20445;-66
2022/06/30 12:37:36;;;;;;;6.03;4.60;;;45.00;36.60;;;;;;4989151;28;20208;-65
2022/06/30 12:40:05;;;;;;;5.60;5.23;;;44.60;36.50;;;;;;4991213;28;20811;-65
2022/06/30 12:42:50;;;;;;;4.57;4.20;;;43.50;36.90;;;;;;4989466;28;20434;-66
2022/06/30 12:45:34;;;;;;;9.33;6.10;;;44.00;37.30;;;;;;4986672;28;20446;-66
2022/06/30 12:48:01;;;;;;;5.43;5.10;;;43.50;37.00;;;;;;4987804;28;20466;-66
2022/06/30 12:50:27;;;;;;;5.80;5.40;;;44.80;36.60;;;;;;4989141;28;20435;-66
2022/06/30 12:52:52;;;;;;;6.50;6.07;;;44.60;36.40;;;;;;4990967;28;20442;-66
2022/06/30 12:55:18;;;;;;;6.10;5.70;;;44.60;36.00;;;;;;4990487;28;20543;-67
2022/06/30 12:57:50;;;;;;;5.83;5.33;;;45.30;35.50;;;;;;4989234;28;20242;-64